Wilfred Sykes — WC5932 — position and weather

sailwx.info

Track history (hours):
 
Tides and Currents Weather Stations Pressure Air Temp Water Temp Dewpoint Dewpoint Depression Visibility Wind Speed Wind Dir Waves Ship Positions

Wilfred Sykes

Owner: CENTRAL MARINE LOGISTICS, INC, GRIFFITH, IN. More information available from US FCC via Universal Licensing System and Coast Guard Vessel Documentation Center.

Last reported at 2017-Nov-19 12:00 UTC. Time now 2017-Nov-19 12:36 UTC.
Position N 44°48' W 087°24'.

Length 219 m; draft 8 m.

Type: Cargo ship. MMSI: 367909800.

Barometer 1015.1 mb
Air temperature -1.4 ° C
Dewpoint -33.3 ° C

Date/timePositionNaut miles runAvg speedWind from/ knotsBaromVisibWave heightAir tempDewpointWater temp
2017-Nov-19 12:00N 44°48' W 087°24'0 0.0 1015.1 -1.4-33.3
2017-Nov-19 11:00N 44°48' W 087°24'0 0.0 1014.4 -0.9-32.8
2017-Nov-19 10:00N 44°48' W 087°24'0 0.0 1014.2 -0.8-32.8
2017-Nov-19 09:00N 44°48' W 087°24'0 0.0 1013.6 -0.4-32.2
2017-Nov-19 08:00N 44°48' W 087°24'0 0.0 1013.0 -0.0-27.8
2017-Nov-19 07:00N 44°48' W 087°24'0 0.0 1012.2 0.5-30.0
2017-Nov-19 06:00N 44°48' W 087°24'0 0.0 1011.4 1.1-19.4
2017-Nov-19 05:00N 44°48' W 087°24'0 0.0 1010.9 1.4-22.2
2017-Nov-19 04:00N 44°48' W 087°24'0 0.0 1010.6 1.5-19.4
2017-Nov-19 03:00N 44°48' W 087°24'0 0.0 1009.9 1.9-22.2
2017-Nov-19 02:00N 44°48' W 087°24'0 0.0 1009.1 2.3-22.8
2017-Nov-19 01:00N 44°48' W 087°24'0 0.0 1008.5 2.7-33.3
2017-Nov-19 00:00N 44°48' W 087°24'0 0.0 1007.8 3.1-32.8
2017-Nov-18 23:00N 44°48' W 087°24'0 0.0 1006.5 3.6-21.7
2017-Nov-18 22:00N 44°48' W 087°24'0 0.0 1005.1 4.1-19.4
2017-Nov-18 21:00N 44°48' W 087°24'0 0.0 1004.1 4.3-14.4
2017-Nov-18 20:00N 44°48' W 087°24'0 0.0 1004.2 4.1-11.7
2017-Nov-18 19:00N 44°48' W 087°24'0 0.0 1003.9 4.2-10.0
2017-Nov-18 18:00N 44°48' W 087°24'0 0.0 1004.1 4.2-10.0
2017-Nov-18 17:00N 44°48' W 087°24'0 0.0 1004.2 4.2-8.9
2017-Nov-18 16:00N 44°48' W 087°24'0 0.0 1005.5 4.0-8.3
2017-Nov-18 15:00N 44°48' W 087°24'0 0.0 350 / 121005.4 3.7-8.9
2017-Nov-18 14:00N 44°48' W 087°24'0 0.0 350 / 13988.3 3.9-8.9
2017-Nov-18 13:00N 44°48' W 087°24'0 0.0 350 / 13988.4 3.4-8.3
2017-Nov-18 12:00N 44°48' W 087°24'0 0.0 360 / 9987.8 3.5-8.9
2017-Nov-18 11:00N 44°48' W 087°24'0 0.0 360 / 12989.0 3.5-8.3
2017-Nov-18 10:00N 44°48' W 087°24'0 0.0 350 / 9988.3 3.7-7.8
2017-Nov-18 09:00N 44°48' W 087°24'0 0.0 310 / 18987.5 3.6-5.0
2017-Nov-18 08:00N 44°48' W 087°24'0 0.0 310 / 18988.0 3.6-3.9
2017-Nov-18 07:00N 44°48' W 087°24'0 0.0 300 / 12988.5 3.9-3.3
2017-Nov-18 06:00N 44°48' W 087°24'0 0.0 300 / 9989.3 4.2-2.8
2017-Nov-18 05:00N 44°48' W 087°24'0 0.0 260 / 4989.7 4.0-3.3
2017-Nov-18 04:00N 44°48' W 087°24'0 0.0 260 / 5991.2 4.4-2.8
2017-Nov-18 03:00N 44°48' W 087°24'0 0.0 190 / 5991.9 4.4-2.8
2017-Nov-18 02:00N 44°48' W 087°24'0 0.0 200 / 9991.9 4.4-3.3
2017-Nov-18 01:00N 44°48' W 087°24'0 0.0 180 / 20992.2 4.9-3.9
2017-Nov-18 00:00N 44°48' W 087°24'0 0.0 160 / 22991.9 5.1-6.1
2017-Nov-17 23:00N 44°48' W 087°24'0 0.0 160 / 24991.1 5.4-7.8
2017-Nov-17 22:00N 44°48' W 087°24'0 0.0 160 / 29991.5 4.9-7.2
2017-Nov-17 21:00N 44°48' W 087°24'0 0.0 160 / 28993.3 5.1-10.6
2017-Nov-17 20:00N 44°48' W 087°24'0 0.0 160 / 28994.5 5.4-11.1
2017-Nov-17 19:00N 44°48' W 087°24'0 0.0 160 / 27996.1 5.5-13.3
2017-Nov-17 18:00N 44°48' W 087°24'0 0.0 160 / 26997.8 5.4-13.3
2017-Nov-17 17:00N 44°48' W 087°24'0 0.0 160 / 26999.2 5.5-13.9
2017-Nov-17 16:00N 44°48' W 087°24'0 0.0 140 / 23999.3 4.4-7.8
2017-Nov-17 15:00N 44°48' W 087°24'0 0.0 150 / 211000.8 4.2-7.8
2017-Nov-17 14:00N 44°48' W 087°24'0 0.0 150 / 161001.8 3.1-8.3
2017-Nov-17 13:00N 44°48' W 087°24'0 0.0 150 / 131003.5 3.4-12.8
2017-Nov-17 12:00N 44°48' W 087°24'0 0.0 130 / 111004.0 2.6-15.0
2017-Nov-17 11:00N 44°48' W 087°24'0 0.0 140 / 101006.1 2.2-16.7
2017-Nov-17 10:00N 44°48' W 087°24'0 0.0 120 / 141005.2 2.1-16.7
2017-Nov-17 09:00N 44°48' W 087°24'0 0.0 300 / 31007.1 1.3-20.0
2017-Nov-17 08:00N 44°48' W 087°24'0 0.0 270 / 41007.8 1.1-20.0
2017-Nov-17 07:00N 44°48' W 087°24'0 0.0 310 / 31008.2 0.7-22.2
2017-Nov-17 06:00N 44°48' W 087°24'0 0.0 060 / 41008.6 0.1-25.0
2017-Nov-17 05:00N 44°48' W 087°24'0 0.0 060 / 41009.2 -0.8-32.8
2017-Nov-17 04:00N 44°48' W 087°24'0 0.0 030 / 51010.1 -0.6-32.8
2017-Nov-17 03:00N 44°48' W 087°24'0 0.0 080 / 31010.7 -0.4-32.2
2017-Nov-17 02:00N 44°48' W 087°24'0 0.0 080 / 51010.4 -0.2-32.2
2017-Nov-17 01:00N 44°48' W 087°24'0 0.0 050 / 61009.7 -0.1-32.2
2017-Nov-17 00:00N 44°48' W 087°24'0 0.0 030 / 81009.1 0.1-35.0
2017-Nov-16 23:00N 44°48' W 087°24'0 0.0 030 / 91008.7 0.3-35.0
2017-Nov-16 22:00N 44°48' W 087°24'0 0.0 350 / 111008.6 0.4-35.0
2017-Nov-16 21:00N 44°48' W 087°24'0 0.0 010 / 111008.8 0.7-30.0
2017-Nov-16 20:00N 44°48' W 087°24'0 0.0 320 / 131009.7 0.7-30.0
2017-Nov-16 19:00N 44°48' W 087°24'0 0.0 350 / 131009.4 0.9-24.4
2017-Nov-16 18:00N 44°48' W 087°24'0 0.0 350 / 141008.5 0.7-24.4
2017-Nov-16 17:00N 44°48' W 087°24'0 0.0 350 / 151007.0 0.8-24.4
2017-Nov-16 16:00N 44°48' W 087°24'0 0.0 350 / 161005.8 0.8-19.4
2017-Nov-16 15:00N 44°48' W 087°24'0 0.0 340 / 161004.8 0.7-24.4
2017-Nov-16 14:00N 44°48' W 087°24'0 0.0 310 / 261003.8 0.6-30.0
2017-Nov-16 13:00N 44°48' W 087°24'0 0.0 310 / 311002.9 0.9-30.0
2017-Nov-16 12:00N 44°48' W 087°24'0 0.0 310 / 301001.5 1.1-32.8
2017-Nov-16 11:00N 44°48' W 087°24'0 0.0 310 / 331000.5 1.3-34.4
2017-Nov-16 10:00N 44°48' W 087°24'0 0.0 310 / 35999.3 1.7-33.9
2017-Nov-16 09:00N 44°48' W 087°24'0 0.0 310 / 34998.6 2.0-33.9
2017-Nov-16 08:00N 44°48' W 087°24'0 0.0 310 / 35997.7 2.5-33.3
2017-Nov-16 07:00N 44°48' W 087°24'0 0.0 310 / 35996.6 3.1-24.4
2017-Nov-16 06:00N 44°48' W 087°24'0 0.0 290 / 30996.4 3.3-21.7
2017-Nov-16 05:00N 44°48' W 087°24'0 0.0 290 / 28995.6 3.4-19.4
2017-Nov-16 04:00N 44°48' W 087°24'0 0.0 290 / 24994.7 3.3-17.2
2017-Nov-16 03:00N 44°48' W 087°24'0 0.0 290 / 26993.0 3.6-15.6
2017-Nov-16 02:00N 44°48' W 087°24'0 0.0 300 / 27992.6 4.6-16.1
2017-Nov-16 01:00N 44°48' W 087°24'6 6.0 300 / 23992.0 5.1-15.6
2017-Nov-16 00:00N 44°54' W 087°24'6 6.0 280 / 25991.0 6.0-12.8
2017-Nov-15 23:00N 45°00' W 087°24'6 6.0 280 / 22990.4 6.6-7.2
2017-Nov-15 22:00N 45°06' W 087°24'1312.7 290 / 26989.7 6.3-6.7
2017-Nov-15 21:00N 45°18' W 087°18'8 8.4 300 / 25988.7 6.3-6.1
2017-Nov-15 20:00N 45°18' W 087°06'1010.4 340 / 23988.3 6.9-5.6
2017-Nov-15 19:00N 45°12' W 086°54'6 6.0 220 / 20988.7 6.4-2.2
2017-Nov-15 18:00N 45°06' W 086°54'1212.0 210 / 22990.0 7.0-3.3
2017-Nov-15 17:00N 44°54' W 086°54'1212.0 200 / 27991.6 7.5-2.8
2017-Nov-15 16:00N 44°42' W 086°54'1212.0 190 / 28992.4 7.6-2.8
2017-Nov-15 15:00N 44°30' W 086°54'19 9.3 200 / 31993.4 7.8-3.3
2017-Nov-15 13:00N 44°12' W 086°48'1212.0 180 / 28994.4 8.2-4.4
2017-Nov-15 12:00N 44°00' W 086°48'1212.0 250 / 24995.6 8.4-5.0
2017-Nov-15 11:00N 43°48' W 086°48'6 6.0 170 / 28997.8 8.3-6.7
2017-Nov-15 10:00N 43°42' W 086°48'1312.8 180 / 32998.6 8.8-9.4
2017-Nov-15 09:00N 43°30' W 086°42'7 7.4 170 / 281000.5 9.4-11.7
2017-Nov-15 08:00N 43°24' W 086°36'1312.8 160 / 271001.5 9.4-12.2
2017-Nov-15 07:00N 43°12' W 086°30'1110.6 170 / 271002.1 8.9-12.8
2017-Nov-15 06:00N 43°06' W 086°18'4 4.4 160 / 241002.8 7.6-16.7
2017-Nov-15 05:00N 43°06' W 086°12'0 0.0 190 / 101003.9 7.6-30.0
2017-Nov-15 04:00N 43°06' W 086°12'0 0.0 150 / 81003.9 7.5-30.0
2017-Nov-15 03:00N 43°06' W 086°12'0 0.0 150 / 71004.4 7.7-29.4
2017-Nov-15 02:00N 43°06' W 086°12'0 0.0 160 / 81005.2 7.8-29.4
2017-Nov-15 01:00N 43°06' W 086°12'7 7.4 160 / 191006.1 8.0-29.4
2017-Nov-15 00:00N 43°00' W 086°18'7 7.4 150 / 211006.2 8.7-23.9
2017-Nov-14 23:00N 42°54' W 086°24'1312.8 160 / 191006.9 8.9-28.9
2017-Nov-14 22:00N 42°42' W 086°30'7 7.4 170 / 181007.9 8.7-28.9
2017-Nov-14 21:00N 42°36' W 086°36'1312.8 160 / 181008.8 8.5-23.9
2017-Nov-14 20:00N 42°24' W 086°42'1312.8 160 / 191009.7 8.0-20.0
2017-Nov-14 19:00N 42°12' W 086°48'2010.0 170 / 191010.4 7.7-20.0
2017-Nov-14 17:00N 41°54' W 087°00'7 7.5 170 / 171011.7 6.3-14.4
2017-Nov-14 16:00N 41°48' W 087°06'1212.0 180 / 171012.0 5.6-13.9
2017-Nov-14 15:00N 41°36' W 087°06'0 0.0 180 / 111012.4 3.1-11.7
2017-Nov-14 14:00N 41°36' W 087°06'0 0.0 170 / 101012.0 2.4-10.6
2017-Nov-14 13:00N 41°36' W 087°06'0 0.0 170 / 101011.9 2.8-10.0
2017-Nov-14 12:00N 41°36' W 087°06'0 0.0 160 / 121012.1 3.0-9.4
2017-Nov-14 11:00N 41°36' W 087°06'0 0.0 160 / 121011.8 2.5-8.3
2017-Nov-14 10:00N 41°36' W 087°06'0 0.0 160 / 91012.1 3.1-10.6
2017-Nov-14 09:00N 41°36' W 087°06'0 0.0 170 / 81012.2 3.0-9.4
2017-Nov-14 08:00N 41°36' W 087°06'0 0.0 180 / 81012.6 2.9-9.4
2017-Nov-14 07:00N 41°36' W 087°06'0 0.0 180 / 61013.3 3.3-10.6
2017-Nov-14 06:00N 41°36' W 087°06'0 0.0 190 / 61013.5 3.5-12.2
2017-Nov-14 05:00N 41°36' W 087°06'0 0.0 190 / 81013.6 3.7-12.2
2017-Nov-14 04:00N 41°36' W 087°06'0 0.0 190 / 91013.9 3.8-12.2
2017-Nov-14 03:00N 41°36' W 087°06'0 0.0 190 / 81014.4 4.2-12.2
2017-Nov-14 02:00N 41°36' W 087°06'0 0.0 180 / 81014.6 4.5-13.9
2017-Nov-14 01:00N 41°36' W 087°06'0 0.0 180 / 91014.9 5.2-15.6
2017-Nov-14 00:00N 41°36' W 087°06'0 0.0 180 / 61014.9 5.9-14.4
2017-Nov-13 23:00N 41°36' W 087°06'0 0.0 280 / 61015.5 5.9-13.9
2017-Nov-13 22:00N 41°36' W 087°06'0 0.0 310 / 71015.5 5.8-15.6
2017-Nov-13 21:00N 41°36' W 087°06'0 0.0 320 / 71016.3 5.8-15.6
2017-Nov-13 20:00N 41°36' W 087°06'0 0.0 300 / 91016.5 5.9-15.6
2017-Nov-13 19:00N 41°36' W 087°06'0 0.0 290 / 101016.8 5.5-20.0
2017-Nov-13 18:00N 41°36' W 087°06'0 0.0 290 / 101017.5 5.0-13.9
2017-Nov-13 17:00N 41°36' W 087°06'0 0.0 270 / 91017.5 4.6-12.8
2017-Nov-13 16:00N 41°36' W 087°06'0 0.0 280 / 111017.0 3.9-13.9
2017-Nov-13 15:00N 41°36' W 087°06'0 0.0 280 / 91017.0 3.9-11.1
2017-Nov-13 14:00N 41°36' W 087°06'0 0.0 280 / 91016.0 3.9-12.2
2017-Nov-13 13:00N 41°36' W 087°06'0 0.0 280 / 91015.5 4.2-10.6
2017-Nov-13 12:00N 41°36' W 087°06'6 6.0 290 / 131015.2 4.8-13.3
2017-Nov-13 11:00N 41°42' W 087°06'6 6.0 300 / 141015.0 5.6-10.6
2017-Nov-13 10:00N 41°48' W 087°06'7 7.5 310 / 141014.9 6.0-10.0
2017-Nov-13 09:00N 41°54' W 087°00'98 8.9 300 / 171015.0 6.0-10.0
2017-Nov-12 22:00N 43°30' W 086°36'6 6.0 140 / 61001.5 4.3-15.6
2017-Nov-12 21:00N 43°36' W 086°36'6 6.0 140 / 6998.8 4.8-15.6
2017-Nov-12 20:00N 43°42' W 086°36'1212.0 140 / 51005.3 4.4-16.1
2017-Nov-12 19:00N 43°54' W 086°36'6 6.0 120 / 111011.6 4.0-15.0
2017-Nov-12 18:00N 44°00' W 086°36'1312.8 130 / 131011.9 3.6-12.8
2017-Nov-12 17:00N 44°12' W 086°30'6 6.0 130 / 141011.9 3.7-12.2
2017-Nov-12 16:00N 44°18' W 086°30'7 7.4 130 / 151011.5 3.5-12.2
2017-Nov-12 15:00N 44°24' W 086°24'1212.0 320 / 61011.1 4.5-11.7
2017-Nov-12 14:00N 44°36' W 086°24'7 7.4 310 / 71010.9 4.0-8.9
2017-Nov-12 13:00N 44°42' W 086°18'6 6.0 320 / 91010.4 4.0-5.6
2017-Nov-12 12:00N 44°48' W 086°18'1212.0 310 / 91010.1 3.6-5.6
2017-Nov-12 11:00N 45°00' W 086°18'7 7.3 310 / 121010.3 3.2-5.0
2017-Nov-12 10:00N 45°06' W 086°12'3010.1 290 / 131009.9 2.8-5.0
2017-Nov-12 07:00N 45°36' W 086°06'6 6.0 280 / 161008.8 0.9-6.1
2017-Nov-12 06:00N 45°42' W 086°06'7 7.3 290 / 161008.6 0.7-6.1
2017-Nov-12 05:00N 45°48' W 086°00'7 7.3 280 / 191008.7 0.6-6.1
2017-Nov-12 04:00N 45°54' W 085°54'6 6.0 280 / 171009.3 -0.8-6.7
2017-Nov-12 03:00N 46°00' W 085°54'0 0.0 260 / 81009.1 -0.4-6.1
2017-Nov-12 02:00N 46°00' W 085°54'0 0.0 300 / 51008.9 -0.0-6.1
2017-Nov-12 01:00N 46°00' W 085°54'0 0.0 240 / 191008.7 1.1-5.6
2017-Nov-12 00:00N 46°00' W 085°54'0 0.0 190 / 281008.5 1.7-5.0
2017-Nov-11 23:00N 46°00' W 085°54'0 0.0 190 / 291009.3 1.2-6.1
2017-Nov-11 22:00N 46°00' W 085°54'0 0.0 200 / 311009.4 1.2-6.1
2017-Nov-11 21:00N 46°00' W 085°54'0 0.0 190 / 301009.9 1.2-7.2
2017-Nov-11 20:00N 46°00' W 085°54'0 0.0 190 / 331010.1 1.3-9.4
2017-Nov-11 19:00N 46°00' W 085°54'0 0.0 180 / 331010.6 1.6-11.1
2017-Nov-11 18:00N 46°00' W 085°54'0 0.0 180 / 341011.9 1.2-10.6
2017-Nov-11 17:00N 46°00' W 085°54'0 0.0 180 / 351012.4 0.7-12.8
2017-Nov-11 16:00N 46°00' W 085°54'0 0.0 180 / 341012.7 0.6-10.0
2017-Nov-11 15:00N 46°00' W 085°54'0 0.0 170 / 321013.0 0.3-8.3
2017-Nov-11 14:00N 46°00' W 085°54'0 0.0 180 / 311013.1 -0.0-6.7
2017-Nov-11 13:00N 46°00' W 085°54'0 0.0 190 / 281013.7 -0.1-16.1
2017-Nov-11 12:00N 46°00' W 085°54'0 0.0 180 / 261014.7 -1.1-32.8
2017-Nov-11 11:00N 46°00' W 085°54'0 0.0 180 / 281014.5 -1.4-33.3
2017-Nov-11 10:00N 46°00' W 085°54'0 0.0 170 / 271015.2 -1.4-33.3
2017-Nov-11 09:00N 46°00' W 085°54'0 0.0 170 / 261015.8 -1.4-33.3
2017-Nov-11 08:00N 46°00' W 085°54'0 0.0 180 / 261016.1 -1.7-33.3
2017-Nov-11 07:00N 46°00' W 085°54'0 0.0 160 / 261016.2 -1.9-33.3
2017-Nov-11 06:00N 46°00' W 085°54'0 0.0 180 / 261016.3 -2.0-33.9
2017-Nov-11 05:00N 46°00' W 085°54'0 0.0 170 / 261016.5 -2.1-33.9
2017-Nov-11 04:00N 46°00' W 085°54'0 0.0 140 / 211017.3 -2.6-33.9
2017-Nov-11 03:00N 46°00' W 085°54'0 0.0 130 / 181018.2 -3.2-34.4
2017-Nov-11 02:00N 46°00' W 085°54'0 0.0 120 / 141019.3 -3.8-35.0
2017-Nov-11 01:00N 46°00' W 085°54'0 0.0 130 / 111019.8 -4.3-35.6
2017-Nov-11 00:00N 46°00' W 085°54'0 0.0 110 / 81020.7 -4.6-35.6
2017-Nov-10 23:00N 46°00' W 085°54'0 0.0 160 / 61021.4 -5.0-36.1
2017-Nov-10 22:00N 46°00' W 085°54'0 0.0 140 / 71021.6 -4.7-35.6
2017-Nov-10 21:00N 46°00' W 085°54'0 0.0 180 / 71022.0 -3.8-35.0
2017-Nov-10 20:00N 46°00' W 085°54'0 0.0 010 / 41022.7 -4.4-35.6
2017-Nov-10 19:00N 46°00' W 085°54'6 6.0 320 / 81022.8 -4.2-35.6
2017-Nov-10 18:00N 45°54' W 085°54'0 0.0 290 / 61023.3 -6.3-37.2
2017-Nov-10 17:00N 45°54' W 085°54'0 0.0 290 / 71023.3 -7.2-37.8
2017-Nov-10 16:00N 45°54' W 085°54'0 0.0 320 / 61023.4 -7.7-38.3
2017-Nov-10 15:00N 45°54' W 085°54'0 0.0 320 / 71024.5 -8.2-31.1
2017-Nov-10 14:00N 45°54' W 085°54'0 0.0 300 / 111021.9 -9.4-29.4
2017-Nov-10 13:00N 45°54' W 085°54'0 0.0 010 / 81019.9 -9.7-32.2
2017-Nov-10 12:00N 45°54' W 085°54'0 0.0 360 / 101019.2 -10.1-30.0
2017-Nov-10 11:00N 45°54' W 085°54'0 0.0 020 / 121018.3 -10.2-32.8
2017-Nov-10 10:00N 45°54' W 085°54'0 0.0 360 / 141017.5 -10.5-33.3
2017-Nov-10 09:00N 45°54' W 085°54'0 0.0 360 / 181016.8 -10.3-32.8
2017-Nov-10 08:00N 45°54' W 085°54'0 0.0 360 / 221016.1 -9.8-22.2
2017-Nov-10 07:00N 45°54' W 085°54'0 0.0 330 / 241014.3 -9.4-24.4
2017-Nov-10 06:00N 45°54' W 085°54'0 0.0 340 / 221013.3 -8.7-18.3
2017-Nov-10 05:00N 45°54' W 085°54'0 0.0 320 / 211012.3 -8.6-17.8
2017-Nov-10 04:00N 45°54' W 085°54'0 0.0 320 / 221011.4 -8.2-17.2
2017-Nov-10 03:00N 45°54' W 085°54'0 0.0 290 / 231010.1 -8.4-17.2
2017-Nov-10 02:00N 45°54' W 085°54'0 0.0 300 / 251009.3 -8.1-16.7
2017-Nov-10 01:00N 45°54' W 085°54'0 0.0 310 / 251008.8 -8.0-17.2
2017-Nov-10 00:00N 45°54' W 085°54'0 0.0 320 / 261008.4 -7.9-22.2
2017-Nov-09 23:00N 45°54' W 085°54'0 0.0 320 / 261007.8 -7.5-23.3
2017-Nov-09 22:00N 45°54' W 085°54'0 0.0 320 / 311006.5 -7.0-18.3
2017-Nov-09 21:00N 45°54' W 085°54'0 0.0 320 / 401004.8 -5.8-36.7
2017-Nov-09 20:00N 45°54' W 085°54'0 0.0 310 / 381003.7 -6.0-27.2
2017-Nov-09 19:00N 45°54' W 085°54'0 0.0 310 / 401002.0 -4.9-36.1
2017-Nov-09 18:00N 45°54' W 085°54'8 8.4 320 / 381000.6 -3.5-20.6
2017-Nov-09 17:00N 45°54' W 086°06'1010.3 320 / 421000.0 -3.2-18.9
2017-Nov-09 16:00N 45°48' W 086°18'7 7.3 310 / 35999.8 -2.5-15.6
2017-Nov-09 15:00N 45°42' W 086°24'7 7.3 320 / 37998.8 -1.4-15.0
2017-Nov-09 14:00N 45°36' W 086°30'7 7.3 320 / 33998.7 -0.4-9.4
2017-Nov-09 13:00N 45°30' W 086°36'1312.7 320 / 28998.3 0.3-6.7
2017-Nov-09 12:00N 45°18' W 086°42'   310 / 25998.5 0.4-6.7
Track history (hours):
 
Tides and Currents Weather Stations Pressure Air Temp Water Temp Dewpoint Dewpoint Depression Visibility Wind Speed Wind Dir Waves Ship Positions

Wilfred Sykes

Owner: CENTRAL MARINE LOGISTICS, INC, GRIFFITH, IN. More information available from US FCC via Universal Licensing System and Coast Guard Vessel Documentation Center.

Last reported at 2017-Nov-19 12:00 UTC. Time now 2017-Nov-19 12:36 UTC.
Position N 44°48' W 087°24'.

Length 219 m; draft 8 m.

Type: Cargo ship. MMSI: 367909800.

Barometer 1015.1 mb
Air temperature -1.4 ° C
Dewpoint -33.3 ° C

Date/timePositionNaut miles runAvg speedWind from/ knotsBaromVisibWave heightAir tempDewpointWater temp
2017-Nov-19 12:00N 44°48' W 087°24'0 0.0 1015.1 -1.4-33.3
2017-Nov-19 11:00N 44°48' W 087°24'0 0.0 1014.4 -0.9-32.8
2017-Nov-19 10:00N 44°48' W 087°24'0 0.0 1014.2 -0.8-32.8
2017-Nov-19 09:00N 44°48' W 087°24'0 0.0 1013.6 -0.4-32.2
2017-Nov-19 08:00N 44°48' W 087°24'0 0.0 1013.0 -0.0-27.8
2017-Nov-19 07:00N 44°48' W 087°24'0 0.0 1012.2 0.5-30.0
2017-Nov-19 06:00N 44°48' W 087°24'0 0.0 1011.4 1.1-19.4
2017-Nov-19 05:00N 44°48' W 087°24'0 0.0 1010.9 1.4-22.2
2017-Nov-19 04:00N 44°48' W 087°24'0 0.0 1010.6 1.5-19.4
2017-Nov-19 03:00N 44°48' W 087°24'0 0.0 1009.9 1.9-22.2
2017-Nov-19 02:00N 44°48' W 087°24'0 0.0 1009.1 2.3-22.8
2017-Nov-19 01:00N 44°48' W 087°24'0 0.0 1008.5 2.7-33.3
2017-Nov-19 00:00N 44°48' W 087°24'0 0.0 1007.8 3.1-32.8
2017-Nov-18 23:00N 44°48' W 087°24'0 0.0 1006.5 3.6-21.7
2017-Nov-18 22:00N 44°48' W 087°24'0 0.0 1005.1 4.1-19.4
2017-Nov-18 21:00N 44°48' W 087°24'0 0.0 1004.1 4.3-14.4
2017-Nov-18 20:00N 44°48' W 087°24'0 0.0 1004.2 4.1-11.7
2017-Nov-18 19:00N 44°48' W 087°24'0 0.0 1003.9 4.2-10.0
2017-Nov-18 18:00N 44°48' W 087°24'0 0.0 1004.1 4.2-10.0
2017-Nov-18 17:00N 44°48' W 087°24'0 0.0 1004.2 4.2-8.9
2017-Nov-18 16:00N 44°48' W 087°24'0 0.0 1005.5 4.0-8.3
2017-Nov-18 15:00N 44°48' W 087°24'0 0.0 350 / 121005.4 3.7-8.9
2017-Nov-18 14:00N 44°48' W 087°24'0 0.0 350 / 13988.3 3.9-8.9
2017-Nov-18 13:00N 44°48' W 087°24'0 0.0 350 / 13988.4 3.4-8.3
2017-Nov-18 12:00N 44°48' W 087°24'0 0.0 360 / 9987.8 3.5-8.9
2017-Nov-18 11:00N 44°48' W 087°24'0 0.0 360 / 12989.0 3.5-8.3
2017-Nov-18 10:00N 44°48' W 087°24'0 0.0 350 / 9988.3 3.7-7.8
2017-Nov-18 09:00N 44°48' W 087°24'0 0.0 310 / 18987.5 3.6-5.0
2017-Nov-18 08:00N 44°48' W 087°24'0 0.0 310 / 18988.0 3.6-3.9
2017-Nov-18 07:00N 44°48' W 087°24'0 0.0 300 / 12988.5 3.9-3.3
2017-Nov-18 06:00N 44°48' W 087°24'0 0.0 300 / 9989.3 4.2-2.8
2017-Nov-18 05:00N 44°48' W 087°24'0 0.0 260 / 4989.7 4.0-3.3
2017-Nov-18 04:00N 44°48' W 087°24'0 0.0 260 / 5991.2 4.4-2.8
2017-Nov-18 03:00N 44°48' W 087°24'0 0.0 190 / 5991.9 4.4-2.8
2017-Nov-18 02:00N 44°48' W 087°24'0 0.0 200 / 9991.9 4.4-3.3
2017-Nov-18 01:00N 44°48' W 087°24'0 0.0 180 / 20992.2 4.9-3.9
2017-Nov-18 00:00N 44°48' W 087°24'0 0.0 160 / 22991.9 5.1-6.1
2017-Nov-17 23:00N 44°48' W 087°24'0 0.0 160 / 24991.1 5.4-7.8
2017-Nov-17 22:00N 44°48' W 087°24'0 0.0 160 / 29991.5 4.9-7.2
2017-Nov-17 21:00N 44°48' W 087°24'0 0.0 160 / 28993.3 5.1-10.6
2017-Nov-17 20:00N 44°48' W 087°24'0 0.0 160 / 28994.5 5.4-11.1
2017-Nov-17 19:00N 44°48' W 087°24'0 0.0 160 / 27996.1 5.5-13.3
2017-Nov-17 18:00N 44°48' W 087°24'0 0.0 160 / 26997.8 5.4-13.3
2017-Nov-17 17:00N 44°48' W 087°24'0 0.0 160 / 26999.2 5.5-13.9
2017-Nov-17 16:00N 44°48' W 087°24'0 0.0 140 / 23999.3 4.4-7.8
2017-Nov-17 15:00N 44°48' W 087°24'0 0.0 150 / 211000.8 4.2-7.8
2017-Nov-17 14:00N 44°48' W 087°24'0 0.0 150 / 161001.8 3.1-8.3
2017-Nov-17 13:00N 44°48' W 087°24'0 0.0 150 / 131003.5 3.4-12.8
2017-Nov-17 12:00N 44°48' W 087°24'0 0.0 130 / 111004.0 2.6-15.0
2017-Nov-17 11:00N 44°48' W 087°24'0 0.0 140 / 101006.1 2.2-16.7
2017-Nov-17 10:00N 44°48' W 087°24'0 0.0 120 / 141005.2 2.1-16.7
2017-Nov-17 09:00N 44°48' W 087°24'0 0.0 300 / 31007.1 1.3-20.0
2017-Nov-17 08:00N 44°48' W 087°24'0 0.0 270 / 41007.8 1.1-20.0
2017-Nov-17 07:00N 44°48' W 087°24'0 0.0 310 / 31008.2 0.7-22.2
2017-Nov-17 06:00N 44°48' W 087°24'0 0.0 060 / 41008.6 0.1-25.0
2017-Nov-17 05:00N 44°48' W 087°24'0 0.0 060 / 41009.2 -0.8-32.8
2017-Nov-17 04:00N 44°48' W 087°24'0 0.0 030 / 51010.1 -0.6-32.8
2017-Nov-17 03:00N 44°48' W 087°24'0 0.0 080 / 31010.7 -0.4-32.2
2017-Nov-17 02:00N 44°48' W 087°24'0 0.0 080 / 51010.4 -0.2-32.2
2017-Nov-17 01:00N 44°48' W 087°24'0 0.0 050 / 61009.7 -0.1-32.2
2017-Nov-17 00:00N 44°48' W 087°24'0 0.0 030 / 81009.1 0.1-35.0
2017-Nov-16 23:00N 44°48' W 087°24'0 0.0 030 / 91008.7 0.3-35.0
2017-Nov-16 22:00N 44°48' W 087°24'0 0.0 350 / 111008.6 0.4-35.0
2017-Nov-16 21:00N 44°48' W 087°24'0 0.0 010 / 111008.8 0.7-30.0
2017-Nov-16 20:00N 44°48' W 087°24'0 0.0 320 / 131009.7 0.7-30.0
2017-Nov-16 19:00N 44°48' W 087°24'0 0.0 350 / 131009.4 0.9-24.4
2017-Nov-16 18:00N 44°48' W 087°24'0 0.0 350 / 141008.5 0.7-24.4
2017-Nov-16 17:00N 44°48' W 087°24'0 0.0 350 / 151007.0 0.8-24.4
2017-Nov-16 16:00N 44°48' W 087°24'0 0.0 350 / 161005.8 0.8-19.4
2017-Nov-16 15:00N 44°48' W 087°24'0 0.0 340 / 161004.8 0.7-24.4
2017-Nov-16 14:00N 44°48' W 087°24'0 0.0 310 / 261003.8 0.6-30.0
2017-Nov-16 13:00N 44°48' W 087°24'0 0.0 310 / 311002.9 0.9-30.0
2017-Nov-16 12:00N 44°48' W 087°24'0 0.0 310 / 301001.5 1.1-32.8
2017-Nov-16 11:00N 44°48' W 087°24'0 0.0 310 / 331000.5 1.3-34.4
2017-Nov-16 10:00N 44°48' W 087°24'0 0.0 310 / 35999.3 1.7-33.9
2017-Nov-16 09:00N 44°48' W 087°24'0 0.0 310 / 34998.6 2.0-33.9
2017-Nov-16 08:00N 44°48' W 087°24'0 0.0 310 / 35997.7 2.5-33.3
2017-Nov-16 07:00N 44°48' W 087°24'0 0.0 310 / 35996.6 3.1-24.4
2017-Nov-16 06:00N 44°48' W 087°24'0 0.0 290 / 30996.4 3.3-21.7
2017-Nov-16 05:00N 44°48' W 087°24'0 0.0 290 / 28995.6 3.4-19.4
2017-Nov-16 04:00N 44°48' W 087°24'0 0.0 290 / 24994.7 3.3-17.2
2017-Nov-16 03:00N 44°48' W 087°24'0 0.0 290 / 26993.0 3.6-15.6
2017-Nov-16 02:00N 44°48' W 087°24'0 0.0 300 / 27992.6 4.6-16.1
2017-Nov-16 01:00N 44°48' W 087°24'6 6.0 300 / 23992.0 5.1-15.6
2017-Nov-16 00:00N 44°54' W 087°24'6 6.0 280 / 25991.0 6.0-12.8
2017-Nov-15 23:00N 45°00' W 087°24'6 6.0 280 / 22990.4 6.6-7.2
2017-Nov-15 22:00N 45°06' W 087°24'1312.7 290 / 26989.7 6.3-6.7
2017-Nov-15 21:00N 45°18' W 087°18'8 8.4 300 / 25988.7 6.3-6.1
2017-Nov-15 20:00N 45°18' W 087°06'1010.4 340 / 23988.3 6.9-5.6
2017-Nov-15 19:00N 45°12' W 086°54'6 6.0 220 / 20988.7 6.4-2.2
2017-Nov-15 18:00N 45°06' W 086°54'1212.0 210 / 22990.0 7.0-3.3
2017-Nov-15 17:00N 44°54' W 086°54'1212.0 200 / 27991.6 7.5-2.8
2017-Nov-15 16:00N 44°42' W 086°54'1212.0 190 / 28992.4 7.6-2.8
2017-Nov-15 15:00N 44°30' W 086°54'19 9.3 200 / 31993.4 7.8-3.3
2017-Nov-15 13:00N 44°12' W 086°48'1212.0 180 / 28994.4 8.2-4.4
2017-Nov-15 12:00N 44°00' W 086°48'1212.0 250 / 24995.6 8.4-5.0
2017-Nov-15 11:00N 43°48' W 086°48'6 6.0 170 / 28997.8 8.3-6.7
2017-Nov-15 10:00N 43°42' W 086°48'1312.8 180 / 32998.6 8.8-9.4
2017-Nov-15 09:00N 43°30' W 086°42'7 7.4 170 / 281000.5 9.4-11.7
2017-Nov-15 08:00N 43°24' W 086°36'1312.8 160 / 271001.5 9.4-12.2
2017-Nov-15 07:00N 43°12' W 086°30'1110.6 170 / 271002.1 8.9-12.8
2017-Nov-15 06:00N 43°06' W 086°18'4 4.4 160 / 241002.8 7.6-16.7
2017-Nov-15 05:00N 43°06' W 086°12'0 0.0 190 / 101003.9 7.6-30.0
2017-Nov-15 04:00N 43°06' W 086°12'0 0.0 150 / 81003.9 7.5-30.0
2017-Nov-15 03:00N 43°06' W 086°12'0 0.0 150 / 71004.4 7.7-29.4
2017-Nov-15 02:00N 43°06' W 086°12'0 0.0 160 / 81005.2 7.8-29.4
2017-Nov-15 01:00N 43°06' W 086°12'7 7.4 160 / 191006.1 8.0-29.4
2017-Nov-15 00:00N 43°00' W 086°18'7 7.4 150 / 211006.2 8.7-23.9
2017-Nov-14 23:00N 42°54' W 086°24'1312.8 160 / 191006.9 8.9-28.9
2017-Nov-14 22:00N 42°42' W 086°30'7 7.4 170 / 181007.9 8.7-28.9
2017-Nov-14 21:00N 42°36' W 086°36'1312.8 160 / 181008.8 8.5-23.9
2017-Nov-14 20:00N 42°24' W 086°42'1312.8 160 / 191009.7 8.0-20.0
2017-Nov-14 19:00N 42°12' W 086°48'2010.0 170 / 191010.4 7.7-20.0
2017-Nov-14 17:00N 41°54' W 087°00'7 7.5 170 / 171011.7 6.3-14.4
2017-Nov-14 16:00N 41°48' W 087°06'1212.0 180 / 171012.0 5.6-13.9
2017-Nov-14 15:00N 41°36' W 087°06'0 0.0 180 / 111012.4 3.1-11.7
2017-Nov-14 14:00N 41°36' W 087°06'0 0.0 170 / 101012.0 2.4-10.6
2017-Nov-14 13:00N 41°36' W 087°06'0 0.0 170 / 101011.9 2.8-10.0
2017-Nov-14 12:00N 41°36' W 087°06'0 0.0 160 / 121012.1 3.0-9.4
2017-Nov-14 11:00N 41°36' W 087°06'0 0.0 160 / 121011.8 2.5-8.3
2017-Nov-14 10:00N 41°36' W 087°06'0 0.0 160 / 91012.1 3.1-10.6
2017-Nov-14 09:00N 41°36' W 087°06'0 0.0 170 / 81012.2 3.0-9.4
2017-Nov-14 08:00N 41°36' W 087°06'0 0.0 180 / 81012.6 2.9-9.4
2017-Nov-14 07:00N 41°36' W 087°06'0 0.0 180 / 61013.3 3.3-10.6
2017-Nov-14 06:00N 41°36' W 087°06'0 0.0 190 / 61013.5 3.5-12.2
2017-Nov-14 05:00N 41°36' W 087°06'0 0.0 190 / 81013.6 3.7-12.2
2017-Nov-14 04:00N 41°36' W 087°06'0 0.0 190 / 91013.9 3.8-12.2
2017-Nov-14 03:00N 41°36' W 087°06'0 0.0 190 / 81014.4 4.2-12.2
2017-Nov-14 02:00N 41°36' W 087°06'0 0.0 180 / 81014.6 4.5-13.9
2017-Nov-14 01:00N 41°36' W 087°06'0 0.0 180 / 91014.9 5.2-15.6
2017-Nov-14 00:00N 41°36' W 087°06'0 0.0 180 / 61014.9 5.9-14.4
2017-Nov-13 23:00N 41°36' W 087°06'0 0.0 280 / 61015.5 5.9-13.9
2017-Nov-13 22:00N 41°36' W 087°06'0 0.0 310 / 71015.5 5.8-15.6
2017-Nov-13 21:00N 41°36' W 087°06'0 0.0 320 / 71016.3 5.8-15.6
2017-Nov-13 20:00N 41°36' W 087°06'0 0.0 300 / 91016.5 5.9-15.6
2017-Nov-13 19:00N 41°36' W 087°06'0 0.0 290 / 101016.8 5.5-20.0
2017-Nov-13 18:00N 41°36' W 087°06'0 0.0 290 / 101017.5 5.0-13.9
2017-Nov-13 17:00N 41°36' W 087°06'0 0.0 270 / 91017.5 4.6-12.8
2017-Nov-13 16:00N 41°36' W 087°06'0 0.0 280 / 111017.0 3.9-13.9
2017-Nov-13 15:00N 41°36' W 087°06'0 0.0 280 / 91017.0 3.9-11.1
2017-Nov-13 14:00N 41°36' W 087°06'0 0.0 280 / 91016.0 3.9-12.2
2017-Nov-13 13:00N 41°36' W 087°06'0 0.0 280 / 91015.5 4.2-10.6
2017-Nov-13 12:00N 41°36' W 087°06'6 6.0 290 / 131015.2 4.8-13.3
2017-Nov-13 11:00N 41°42' W 087°06'6 6.0 300 / 141015.0 5.6-10.6
2017-Nov-13 10:00N 41°48' W 087°06'7 7.5 310 / 141014.9 6.0-10.0
2017-Nov-13 09:00N 41°54' W 087°00'98 8.9 300 / 171015.0 6.0-10.0
2017-Nov-12 22:00N 43°30' W 086°36'6 6.0 140 / 61001.5 4.3-15.6
2017-Nov-12 21:00N 43°36' W 086°36'6 6.0 140 / 6998.8 4.8-15.6
2017-Nov-12 20:00N 43°42' W 086°36'1212.0 140 / 51005.3 4.4-16.1
2017-Nov-12 19:00N 43°54' W 086°36'6 6.0 120 / 111011.6 4.0-15.0
2017-Nov-12 18:00N 44°00' W 086°36'1312.8 130 / 131011.9 3.6-12.8
2017-Nov-12 17:00N 44°12' W 086°30'6 6.0 130 / 141011.9 3.7-12.2
2017-Nov-12 16:00N 44°18' W 086°30'7 7.4 130 / 151011.5 3.5-12.2
2017-Nov-12 15:00N 44°24' W 086°24'1212.0 320 / 61011.1 4.5-11.7
2017-Nov-12 14:00N 44°36' W 086°24'7 7.4 310 / 71010.9 4.0-8.9
2017-Nov-12 13:00N 44°42' W 086°18'6 6.0 320 / 91010.4 4.0-5.6
2017-Nov-12 12:00N 44°48' W 086°18'1212.0 310 / 91010.1 3.6-5.6
2017-Nov-12 11:00N 45°00' W 086°18'7 7.3 310 / 121010.3 3.2-5.0
2017-Nov-12 10:00N 45°06' W 086°12'3010.1 290 / 131009.9 2.8-5.0
2017-Nov-12 07:00N 45°36' W 086°06'6 6.0 280 / 161008.8 0.9-6.1
2017-Nov-12 06:00N 45°42' W 086°06'7 7.3 290 / 161008.6 0.7-6.1
2017-Nov-12 05:00N 45°48' W 086°00'7 7.3 280 / 191008.7 0.6-6.1
2017-Nov-12 04:00N 45°54' W 085°54'6 6.0 280 / 171009.3 -0.8-6.7
2017-Nov-12 03:00N 46°00' W 085°54'0 0.0 260 / 81009.1 -0.4-6.1
2017-Nov-12 02:00N 46°00' W 085°54'0 0.0 300 / 51008.9 -0.0-6.1
2017-Nov-12 01:00N 46°00' W 085°54'0 0.0 240 / 191008.7 1.1-5.6
2017-Nov-12 00:00N 46°00' W 085°54'0 0.0 190 / 281008.5 1.7-5.0
2017-Nov-11 23:00N 46°00' W 085°54'0 0.0 190 / 291009.3 1.2-6.1
2017-Nov-11 22:00N 46°00' W 085°54'0 0.0 200 / 311009.4 1.2-6.1
2017-Nov-11 21:00N 46°00' W 085°54'0 0.0 190 / 301009.9 1.2-7.2
2017-Nov-11 20:00N 46°00' W 085°54'0 0.0 190 / 331010.1 1.3-9.4
2017-Nov-11 19:00N 46°00' W 085°54'0 0.0 180 / 331010.6 1.6-11.1
2017-Nov-11 18:00N 46°00' W 085°54'0 0.0 180 / 341011.9 1.2-10.6
2017-Nov-11 17:00N 46°00' W 085°54'0 0.0 180 / 351012.4 0.7-12.8
2017-Nov-11 16:00N 46°00' W 085°54'0 0.0 180 / 341012.7 0.6-10.0
2017-Nov-11 15:00N 46°00' W 085°54'0 0.0 170 / 321013.0 0.3-8.3
2017-Nov-11 14:00N 46°00' W 085°54'0 0.0 180 / 311013.1 -0.0-6.7
2017-Nov-11 13:00N 46°00' W 085°54'0 0.0 190 / 281013.7 -0.1-16.1
2017-Nov-11 12:00N 46°00' W 085°54'0 0.0 180 / 261014.7 -1.1-32.8
2017-Nov-11 11:00N 46°00' W 085°54'0 0.0 180 / 281014.5 -1.4-33.3
2017-Nov-11 10:00N 46°00' W 085°54'0 0.0 170 / 271015.2 -1.4-33.3
2017-Nov-11 09:00N 46°00' W 085°54'0 0.0 170 / 261015.8 -1.4-33.3
2017-Nov-11 08:00N 46°00' W 085°54'0 0.0 180 / 261016.1 -1.7-33.3
2017-Nov-11 07:00N 46°00' W 085°54'0 0.0 160 / 261016.2 -1.9-33.3
2017-Nov-11 06:00N 46°00' W 085°54'0 0.0 180 / 261016.3 -2.0-33.9
2017-Nov-11 05:00N 46°00' W 085°54'0 0.0 170 / 261016.5 -2.1-33.9
2017-Nov-11 04:00N 46°00' W 085°54'0 0.0 140 / 211017.3 -2.6-33.9
2017-Nov-11 03:00N 46°00' W 085°54'0 0.0 130 / 181018.2 -3.2-34.4
2017-Nov-11 02:00N 46°00' W 085°54'0 0.0 120 / 141019.3 -3.8-35.0
2017-Nov-11 01:00N 46°00' W 085°54'0 0.0 130 / 111019.8 -4.3-35.6
2017-Nov-11 00:00N 46°00' W 085°54'0 0.0 110 / 81020.7 -4.6-35.6
2017-Nov-10 23:00N 46°00' W 085°54'0 0.0 160 / 61021.4 -5.0-36.1
2017-Nov-10 22:00N 46°00' W 085°54'0 0.0 140 / 71021.6 -4.7-35.6
2017-Nov-10 21:00N 46°00' W 085°54'0 0.0 180 / 71022.0 -3.8-35.0
2017-Nov-10 20:00N 46°00' W 085°54'0 0.0 010 / 41022.7 -4.4-35.6
2017-Nov-10 19:00N 46°00' W 085°54'6 6.0 320 / 81022.8 -4.2-35.6
2017-Nov-10 18:00N 45°54' W 085°54'0 0.0 290 / 61023.3 -6.3-37.2
2017-Nov-10 17:00N 45°54' W 085°54'0 0.0 290 / 71023.3 -7.2-37.8
2017-Nov-10 16:00N 45°54' W 085°54'0 0.0 320 / 61023.4 -7.7-38.3
2017-Nov-10 15:00N 45°54' W 085°54'0 0.0 320 / 71024.5 -8.2-31.1
2017-Nov-10 14:00N 45°54' W 085°54'0 0.0 300 / 111021.9 -9.4-29.4
2017-Nov-10 13:00N 45°54' W 085°54'0 0.0 010 / 81019.9 -9.7-32.2
2017-Nov-10 12:00N 45°54' W 085°54'0 0.0 360 / 101019.2 -10.1-30.0
2017-Nov-10 11:00N 45°54' W 085°54'0 0.0 020 / 121018.3 -10.2-32.8
2017-Nov-10 10:00N 45°54' W 085°54'0 0.0 360 / 141017.5 -10.5-33.3
2017-Nov-10 09:00N 45°54' W 085°54'0 0.0 360 / 181016.8 -10.3-32.8
2017-Nov-10 08:00N 45°54' W 085°54'0 0.0 360 / 221016.1 -9.8-22.2
2017-Nov-10 07:00N 45°54' W 085°54'0 0.0 330 / 241014.3 -9.4-24.4
2017-Nov-10 06:00N 45°54' W 085°54'0 0.0 340 / 221013.3 -8.7-18.3
2017-Nov-10 05:00N 45°54' W 085°54'0 0.0 320 / 211012.3 -8.6-17.8
2017-Nov-10 04:00N 45°54' W 085°54'0 0.0 320 / 221011.4 -8.2-17.2
2017-Nov-10 03:00N 45°54' W 085°54'0 0.0 290 / 231010.1 -8.4-17.2
2017-Nov-10 02:00N 45°54' W 085°54'0 0.0 300 / 251009.3 -8.1-16.7
2017-Nov-10 01:00N 45°54' W 085°54'0 0.0 310 / 251008.8 -8.0-17.2
2017-Nov-10 00:00N 45°54' W 085°54'0 0.0 320 / 261008.4 -7.9-22.2
2017-Nov-09 23:00N 45°54' W 085°54'0 0.0 320 / 261007.8 -7.5-23.3
2017-Nov-09 22:00N 45°54' W 085°54'0 0.0 320 / 311006.5 -7.0-18.3
2017-Nov-09 21:00N 45°54' W 085°54'0 0.0 320 / 401004.8 -5.8-36.7
2017-Nov-09 20:00N 45°54' W 085°54'0 0.0 310 / 381003.7 -6.0-27.2
2017-Nov-09 19:00N 45°54' W 085°54'0 0.0 310 / 401002.0 -4.9-36.1
2017-Nov-09 18:00N 45°54' W 085°54'8 8.4 320 / 381000.6 -3.5-20.6
2017-Nov-09 17:00N 45°54' W 086°06'1010.3 320 / 421000.0 -3.2-18.9
2017-Nov-09 16:00N 45°48' W 086°18'7 7.3 310 / 35999.8 -2.5-15.6
2017-Nov-09 15:00N 45°42' W 086°24'7 7.3 320 / 37998.8 -1.4-15.0
2017-Nov-09 14:00N 45°36' W 086°30'7 7.3 320 / 33998.7 -0.4-9.4
2017-Nov-09 13:00N 45°30' W 086°36'1312.7 320 / 28998.3 0.3-6.7
2017-Nov-09 12:00N 45°18' W 086°42'   310 / 25998.5 0.4-6.7

Dump ship's entire track history